createdAt,value
2022-07-26T00:00:14.140Z,7.20
2022-07-26T00:03:35.675Z,6.10
2022-07-26T00:06:38.055Z,8.50
2022-07-26T00:09:40.506Z,9.80
2022-07-26T00:12:44.320Z,8.40
2022-07-26T00:15:47.173Z,7.60
2022-07-26T00:18:48.713Z,8.10
2022-07-26T00:22:10.251Z,9.10
2022-07-26T00:25:11.812Z,5.90
2022-07-26T00:28:13.445Z,5.60
2022-07-26T00:31:15.083Z,5.40
2022-07-26T00:34:16.729Z,7.30
2022-07-26T00:37:20.627Z,4.20
2022-07-26T00:40:22.428Z,5.10
2022-07-26T00:43:24.289Z,6.40
2022-07-26T00:46:26.105Z,3.90
2022-07-26T00:49:27.818Z,10.60
2022-07-26T00:52:29.612Z,7.40
2022-07-26T00:55:31.446Z,4.70
2022-07-26T00:58:33.205Z,3.70
2022-07-26T01:01:34.851Z,5.40
2022-07-26T01:04:36.680Z,4.50
2022-07-26T01:07:38.954Z,4.30
2022-07-26T01:10:43.123Z,6.00
2022-07-26T01:13:49.756Z,5.10
2022-07-26T01:16:52.643Z,4.00
2022-07-26T01:19:54.304Z,5.90
2022-07-26T01:22:55.872Z,4.30
2022-07-26T01:25:57.442Z,4.40
2022-07-26T01:28:59.292Z,7.60
2022-07-26T01:32:03.343Z,6.00
2022-07-26T01:35:05.413Z,4.70
2022-07-26T01:41:09.322Z,5.40
2022-07-26T01:44:11.203Z,4.50
2022-07-26T01:47:13.000Z,5.60
2022-07-26T01:50:14.696Z,4.60
2022-07-26T01:53:16.260Z,5.60
2022-07-26T01:56:17.772Z,8.90
2022-07-26T01:59:19.341Z,5.40
2022-07-26T02:02:20.896Z,4.50
2022-07-26T02:05:22.566Z,6.00
2022-07-26T02:08:24.153Z,4.70
2022-07-26T02:11:25.852Z,5.00
2022-07-26T02:14:28.143Z,6.00
2022-07-26T02:17:29.802Z,4.20
2022-07-26T02:20:32.674Z,5.70
2022-07-26T02:23:35.238Z,5.60
2022-07-26T02:26:42.281Z,9.40
2022-07-26T02:29:43.934Z,6.20
2022-07-26T02:32:45.480Z,5.00
2022-07-26T02:35:47.666Z,4.50
2022-07-26T02:38:49.205Z,5.60
2022-07-26T02:41:50.705Z,3.70
2022-07-26T02:44:53.459Z,6.30
2022-07-26T02:47:55.983Z,5.20
2022-07-26T02:50:57.623Z,3.70
2022-07-26T02:53:59.254Z,5.60
2022-07-26T02:57:00.839Z,6.20
2022-07-26T03:00:03.962Z,5.80
2022-07-26T03:03:05.567Z,6.00
2022-07-26T03:06:07.213Z,5.20
2022-07-26T03:09:08.735Z,4.30
2022-07-26T03:12:10.265Z,4.30
2022-07-26T03:15:12.109Z,4.70
2022-07-26T03:18:13.697Z,5.50
2022-07-26T03:21:15.198Z,7.50
2022-07-26T03:24:16.742Z,8.50
2022-07-26T03:27:18.242Z,5.30
2022-07-26T03:30:24.881Z,6.20
2022-07-26T03:33:29.735Z,8.20
2022-07-26T03:36:31.554Z,8.70
2022-07-26T03:39:33.142Z,5.90
2022-07-26T03:42:36.040Z,6.40
2022-07-26T03:45:37.604Z,6.80
2022-07-26T03:48:39.207Z,8.10
2022-07-26T03:51:40.801Z,7.00
2022-07-26T03:54:42.343Z,6.10
2022-07-26T03:57:43.911Z,7.10
2022-07-26T04:00:46.026Z,7.50
2022-07-26T04:06:49.639Z,5.10
2022-07-26T04:09:52.116Z,5.20
2022-07-26T04:12:53.685Z,6.90
2022-07-26T04:15:55.541Z,7.60
2022-07-26T04:18:57.378Z,9.60
2022-07-26T04:21:58.902Z,9.60
2022-07-26T04:25:00.413Z,8.90
2022-07-26T04:28:02.493Z,10.20
2022-07-26T04:34:05.834Z,13.80
2022-07-26T04:40:10.442Z,9.30
2022-07-26T04:43:15.609Z,9.70
2022-07-26T04:46:18.735Z,8.50
2022-07-26T04:49:20.285Z,8.50
2022-07-26T04:52:21.809Z,10.40
2022-07-26T04:55:23.684Z,12.10
2022-07-26T04:58:25.590Z,7.30
2022-07-26T05:01:27.225Z,7.30
2022-07-26T05:04:28.804Z,9.10
2022-07-26T05:07:48.127Z,11.70
2022-07-26T05:10:55.250Z,7.80
2022-07-26T05:13:57.179Z,15.30
2022-07-26T05:16:58.796Z,11.10
2022-07-26T05:20:14.201Z,9.80
2022-07-26T05:23:16.184Z,9.00
2022-07-26T05:26:17.696Z,8.80
2022-07-26T05:29:19.192Z,8.80
2022-07-26T05:32:21.901Z,7.10
2022-07-26T05:35:23.762Z,7.90
2022-07-26T05:38:25.370Z,10.20
2022-07-26T05:41:26.920Z,8.90
2022-07-26T05:44:28.438Z,6.60
2022-07-26T05:47:32.176Z,9.60
2022-07-26T05:50:33.693Z,7.40
2022-07-26T05:53:35.974Z,10.10
2022-07-26T05:56:37.756Z,8.10
2022-07-26T05:59:39.324Z,9.60
2022-07-26T06:02:41.544Z,9.60
2022-07-26T06:05:43.149Z,10.00
2022-07-26T06:08:45.433Z,8.60
2022-07-26T06:14:48.570Z,9.20
2022-07-26T06:17:50.168Z,9.20
2022-07-26T06:20:51.874Z,10.40
2022-07-26T06:23:53.515Z,10.50
2022-07-26T06:27:04.486Z,9.30
2022-07-26T06:30:07.753Z,10.70
2022-07-26T06:33:09.527Z,9.80
2022-07-26T06:36:11.413Z,14.80
2022-07-26T06:42:14.731Z,9.90
2022-07-26T06:45:16.387Z,10.40
2022-07-26T06:48:18.076Z,8.90
2022-07-26T06:51:19.605Z,10.80
2022-07-26T06:54:21.247Z,11.60
2022-07-26T06:57:22.923Z,10.20
2022-07-26T07:00:24.563Z,10.30
2022-07-26T07:03:26.568Z,11.50
2022-07-26T07:09:29.660Z,11.20
2022-07-26T07:12:31.533Z,11.80
2022-07-26T07:15:33.376Z,12.50
2022-07-26T07:18:35.239Z,13.50
2022-07-26T07:21:36.880Z,12.60
2022-07-26T07:24:39.145Z,11.70
2022-07-26T07:27:40.893Z,10.90
2022-07-26T07:30:42.544Z,14.60
2022-07-26T07:33:53.402Z,12.20
2022-07-26T07:36:55.434Z,12.70
2022-07-26T07:39:59.460Z,14.30
2022-07-26T07:43:01.411Z,21.00
2022-07-26T07:49:06.531Z,14.50
2022-07-26T07:52:08.452Z,14.60
2022-07-26T07:58:32.234Z,15.30
2022-07-26T08:01:39.430Z,16.30
2022-07-26T08:04:42.752Z,18.40
2022-07-26T08:07:44.387Z,16.60
2022-07-26T08:10:52.002Z,14.60
2022-07-26T08:13:54.075Z,16.40
2022-07-26T08:16:57.337Z,16.00
2022-07-26T08:20:00.627Z,17.70
2022-07-26T08:23:05.000Z,16.10
2022-07-26T08:26:07.081Z,16.90
2022-07-26T08:29:08.938Z,18.30
2022-07-26T08:32:10.664Z,17.60
2022-07-26T08:35:17.327Z,15.60
2022-07-26T08:38:20.939Z,17.40
2022-07-26T08:41:22.703Z,15.70
2022-07-26T08:44:24.276Z,14.30
2022-07-26T08:47:37.682Z,15.00
2022-07-26T08:50:44.918Z,15.40
2022-07-26T08:53:49.595Z,16.80
2022-07-26T08:56:52.794Z,16.00
2022-07-26T09:00:14.098Z,16.40
2022-07-26T09:03:37.211Z,17.50
2022-07-26T09:06:38.824Z,15.80
2022-07-26T09:10:00.249Z,15.80
2022-07-26T09:13:01.823Z,17.90
2022-07-26T09:16:09.936Z,18.10
2022-07-26T09:19:22.000Z,15.70
2022-07-26T09:22:23.735Z,16.30
2022-07-26T09:25:26.833Z,13.90
2022-07-26T09:28:31.244Z,14.70
2022-07-26T09:31:33.742Z,13.90
2022-07-26T09:34:35.421Z,13.10
2022-07-26T09:37:39.682Z,14.40
2022-07-26T09:40:41.790Z,12.40
2022-07-26T09:43:51.563Z,14.40
2022-07-26T09:46:57.724Z,10.90
2022-07-26T09:50:13.416Z,11.10
2022-07-26T09:53:15.175Z,12.00
2022-07-26T09:59:29.368Z,12.00
2022-07-26T10:02:32.383Z,14.40
2022-07-26T10:05:34.167Z,12.30
2022-07-26T10:08:36.250Z,10.50
2022-07-26T10:11:43.966Z,12.40
2022-07-26T10:14:51.133Z,10.20
2022-07-26T10:17:54.163Z,10.50
2022-07-26T10:20:55.889Z,9.40
2022-07-26T10:24:02.341Z,6.80
2022-07-26T10:27:05.573Z,8.10
2022-07-26T10:30:19.653Z,9.60
2022-07-26T10:33:24.098Z,8.10
2022-07-26T10:36:37.978Z,7.40
2022-07-26T10:39:39.612Z,5.90
2022-07-26T10:42:45.027Z,4.80
2022-07-26T10:45:46.952Z,7.00
2022-07-26T10:49:04.313Z,6.50
2022-07-26T10:52:06.005Z,5.60
2022-07-26T10:55:08.354Z,7.00
2022-07-26T10:58:13.696Z,6.20
2022-07-26T11:01:16.051Z,6.80
2022-07-26T11:04:20.327Z,8.60
2022-07-26T11:07:22.098Z,6.90
2022-07-26T11:10:35.902Z,7.50
2022-07-26T11:13:40.131Z,6.70
2022-07-26T11:16:48.180Z,7.50
2022-07-26T11:23:00.814Z,7.40
2022-07-26T11:26:11.048Z,8.60
2022-07-26T11:29:25.253Z,6.90
2022-07-26T11:32:39.340Z,8.20
2022-07-26T11:38:54.390Z,5.80
2022-07-26T11:41:59.089Z,7.60
2022-07-26T11:45:00.765Z,6.70
2022-07-26T11:48:04.299Z,5.80
2022-07-26T11:51:14.477Z,6.40
2022-07-26T11:54:17.179Z,7.10
2022-07-26T11:57:19.373Z,5.10
2022-07-26T12:00:24.455Z,7.40
2022-07-26T12:03:26.130Z,5.10
2022-07-26T12:06:28.512Z,4.30
2022-07-26T12:09:51.543Z,5.10
2022-07-26T12:13:14.415Z,8.60
2022-07-26T12:16:41.041Z,7.70
2022-07-26T12:19:46.515Z,7.20
2022-07-26T12:23:04.370Z,6.20
2022-07-26T12:26:26.443Z,5.70
2022-07-26T12:29:33.541Z,6.50
2022-07-26T12:32:38.597Z,8.90
2022-07-26T12:35:40.280Z,6.50
2022-07-26T12:38:43.469Z,7.50
2022-07-26T12:41:45.858Z,5.50
2022-07-26T12:44:47.424Z,7.70
2022-07-26T12:47:51.151Z,7.60
2022-07-26T12:50:56.989Z,5.30
2022-07-26T12:54:06.505Z,8.70
2022-07-26T12:57:22.898Z,7.10
2022-07-26T13:00:28.615Z,7.60
2022-07-26T13:03:31.418Z,7.60
2022-07-26T13:06:33.167Z,5.70
2022-07-26T13:09:34.893Z,7.50
2022-07-26T13:12:36.823Z,6.20
2022-07-26T13:15:38.537Z,6.50
2022-07-26T13:18:40.149Z,4.80
2022-07-26T13:21:42.085Z,7.50
2022-07-26T13:24:43.752Z,6.70
2022-07-26T13:27:45.799Z,6.20
2022-07-26T13:30:47.566Z,9.50
2022-07-26T13:33:49.245Z,8.00
2022-07-26T13:36:51.292Z,8.00
2022-07-26T13:42:54.509Z,8.20
2022-07-26T13:45:57.143Z,9.30
2022-07-26T13:49:01.648Z,8.80
2022-07-26T13:52:04.096Z,7.60
2022-07-26T13:55:06.509Z,7.00
2022-07-26T13:58:10.314Z,8.40
2022-07-26T14:01:12.152Z,9.00
2022-07-26T14:04:15.516Z,7.90
2022-07-26T14:07:17.573Z,8.20
2022-07-26T14:10:20.508Z,6.70
2022-07-26T14:13:22.053Z,6.30
2022-07-26T14:16:26.947Z,10.00
2022-07-26T14:19:28.857Z,7.00
2022-07-26T14:22:30.530Z,9.10
2022-07-26T14:25:33.294Z,8.10
2022-07-26T14:28:34.978Z,7.80
2022-07-26T14:31:36.779Z,10.00
2022-07-26T14:34:38.292Z,8.50
2022-07-26T14:37:43.473Z,9.00
2022-07-26T14:40:46.982Z,7.50
2022-07-26T14:43:54.060Z,9.20
2022-07-26T14:46:57.381Z,9.20
2022-07-26T14:50:04.170Z,8.90
2022-07-26T14:53:10.732Z,8.20
2022-07-26T14:56:12.274Z,8.90
2022-07-26T14:59:14.350Z,7.60
2022-07-26T15:05:18.514Z,8.70
2022-07-26T15:08:20.109Z,7.60
2022-07-26T15:11:21.729Z,7.10
2022-07-26T15:14:23.773Z,9.10
2022-07-26T15:17:25.363Z,6.90
2022-07-26T15:20:26.897Z,10.00
2022-07-26T15:26:30.704Z,8.50
2022-07-26T15:29:32.381Z,8.30
2022-07-26T15:32:34.777Z,11.40
2022-07-26T15:35:36.540Z,12.80
2022-07-26T15:38:39.825Z,13.20
2022-07-26T15:41:43.104Z,17.30
2022-07-26T15:44:44.696Z,21.10
2022-07-26T15:51:06.148Z,8.90
2022-07-26T15:54:13.222Z,7.30
2022-07-26T15:57:15.285Z,10.20
2022-07-26T16:00:17.285Z,7.60
2022-07-26T16:06:20.882Z,10.80
